sensor_id;sensor_type;location;lat;lon;timestamp;temperature;humidity
24232;DHT22;12364;47.810;8.810;2023-02-15T04:46:35;2.50;96.30
24232;DHT22;12364;47.810;8.810;2023-02-15T04:49:02;2.60;96.20
24232;DHT22;12364;47.810;8.810;2023-02-15T04:51:29;2.60;96.00
24232;DHT22;12364;47.810;8.810;2023-02-15T04:53:56;2.60;96.00
24232;DHT22;12364;47.810;8.810;2023-02-15T04:56:23;2.60;96.00
24232;DHT22;12364;47.810;8.810;2023-02-15T04:58:50;2.70;96.00
24232;DHT22;12364;47.810;8.810;2023-02-15T05:01:17;2.70;96.00
24232;DHT22;12364;47.810;8.810;2023-02-15T05:03:44;2.70;95.90
24232;DHT22;12364;47.810;8.810;2023-02-15T05:06:11;2.70;96.00
24232;DHT22;12364;47.810;8.810;2023-02-15T05:08:38;2.70;95.90
24232;DHT22;12364;47.810;8.810;2023-02-15T05:11:05;2.60;95.80
24232;DHT22;12364;47.810;8.810;2023-02-15T05:13:32;2.60;96.00
24232;DHT22;12364;47.810;8.810;2023-02-15T05:15:59;2.60;96.20
24232;DHT22;12364;47.810;8.810;2023-02-15T05:18:26;2.60;96.20
24232;DHT22;12364;47.810;8.810;2023-02-15T05:20:53;2.50;95.90
24232;DHT22;12364;47.810;8.810;2023-02-15T05:23:20;2.50;96.00
24232;DHT22;12364;47.810;8.810;2023-02-15T05:25:48;2.50;96.20
24232;DHT22;12364;47.810;8.810;2023-02-15T05:28:34;2.50;96.10
24232;DHT22;12364;47.810;8.810;2023-02-15T05:31:04;2.60;96.20
24232;DHT22;12364;47.810;8.810;2023-02-15T05:33:32;2.60;96.00
24232;DHT22;12364;47.810;8.810;2023-02-15T05:36:01;2.60;96.10
24232;DHT22;12364;47.810;8.810;2023-02-15T05:38:29;2.60;96.30
24232;DHT22;12364;47.810;8.810;2023-02-15T05:40:56;2.60;96.20
24232;DHT22;12364;47.810;8.810;2023-02-15T05:43:23;2.50;96.00
24232;DHT22;12364;47.810;8.810;2023-02-15T05:45:51;2.60;96.30
24232;DHT22;12364;47.810;8.810;2023-02-15T05:48:19;2.60;96.30
24232;DHT22;12364;47.810;8.810;2023-02-15T05:50:46;2.60;96.20
24232;DHT22;12364;47.810;8.810;2023-02-15T05:53:13;2.60;96.20
24232;DHT22;12364;47.810;8.810;2023-02-15T05:55:40;2.60;96.00
24232;DHT22;12364;47.810;8.810;2023-02-15T05:58:07;2.60;96.10
24232;DHT22;12364;47.810;8.810;2023-02-15T06:00:34;2.50;95.90
24232;DHT22;12364;47.810;8.810;2023-02-15T06:03:03;2.40;95.80
24232;DHT22;12364;47.810;8.810;2023-02-15T06:05:30;2.50;95.80
24232;DHT22;12364;47.810;8.810;2023-02-15T06:07:57;2.40;95.60
24232;DHT22;12364;47.810;8.810;2023-02-15T06:10:24;2.40;95.60
24232;DHT22;12364;47.810;8.810;2023-02-15T06:12:51;2.50;95.70
24232;DHT22;12364;47.810;8.810;2023-02-15T06:15:18;2.50;95.60
24232;DHT22;12364;47.810;8.810;2023-02-15T06:17:45;2.40;95.40
24232;DHT22;12364;47.810;8.810;2023-02-15T06:20:12;2.40;95.50
24232;DHT22;12364;47.810;8.810;2023-02-15T06:22:39;2.50;95.50
24232;DHT22;12364;47.810;8.810;2023-02-15T06:25:06;2.50;95.40
24232;DHT22;12364;47.810;8.810;2023-02-15T06:27:36;2.50;95.40
24232;DHT22;12364;47.810;8.810;2023-02-15T06:30:04;2.50;95.20
24232;DHT22;12364;47.810;8.810;2023-02-15T06:32:32;2.40;95.30
24232;DHT22;12364;47.810;8.810;2023-02-15T06:34:59;2.40;95.30
24232;DHT22;12364;47.810;8.810;2023-02-15T06:37:26;2.40;95.30
24232;DHT22;12364;47.810;8.810;2023-02-15T06:39:53;2.40;95.10
24232;DHT22;12364;47.810;8.810;2023-02-15T06:42:20;2.40;95.10
24232;DHT22;12364;47.810;8.810;2023-02-15T06:44:47;2.40;95.10
24232;DHT22;12364;47.810;8.810;2023-02-15T06:47:14;2.40;95.00
24232;DHT22;12364;47.810;8.810;2023-02-15T06:49:41;2.40;95.20
24232;DHT22;12364;47.810;8.810;2023-02-15T06:52:08;2.30;95.20
24232;DHT22;12364;47.810;8.810;2023-02-15T06:54:35;2.20;95.10
24232;DHT22;12364;47.810;8.810;2023-02-15T06:57:02;2.10;95.30
24232;DHT22;12364;47.810;8.810;2023-02-15T06:59:29;2.10;95.50
24232;DHT22;12364;47.810;8.810;2023-02-15T07:01:56;2.10;95.60
24232;DHT22;12364;47.810;8.810;2023-02-15T07:04:23;2.10;95.50
24232;DHT22;12364;47.810;8.810;2023-02-15T07:06:51;2.10;95.50
24232;DHT22;12364;47.810;8.810;2023-02-15T07:09:19;2.00;95.40
24232;DHT22;12364;47.810;8.810;2023-02-15T07:11:46;2.00;95.40
24232;DHT22;12364;47.810;8.810;2023-02-15T07:14:32;2.00;95.40
24232;DHT22;12364;47.810;8.810;2023-02-15T07:16:59;1.90;95.30
24232;DHT22;12364;47.810;8.810;2023-02-15T07:19:26;1.70;95.30
24232;DHT22;12364;47.810;8.810;2023-02-15T07:21:53;1.70;95.60
24232;DHT22;12364;47.810;8.810;2023-02-15T07:24:20;1.80;95.70
24232;DHT22;12364;47.810;8.810;2023-02-15T07:26:47;1.80;95.70
24232;DHT22;12364;47.810;8.810;2023-02-15T07:29:14;1.90;95.60
24232;DHT22;12364;47.810;8.810;2023-02-15T07:31:42;1.90;95.40
24232;DHT22;12364;47.810;8.810;2023-02-15T07:34:12;1.90;95.40
24232;DHT22;12364;47.810;8.810;2023-02-15T07:36:39;1.90;95.40
24232;DHT22;12364;47.810;8.810;2023-02-15T07:39:06;2.00;95.50
24232;DHT22;12364;47.810;8.810;2023-02-15T07:41:32;2.00;95.30
24232;DHT22;12364;47.810;8.810;2023-02-15T07:43:59;1.90;95.30
24232;DHT22;12364;47.810;8.810;2023-02-15T07:46:26;1.90;95.50
24232;DHT22;12364;47.810;8.810;2023-02-15T07:48:54;1.90;95.30
24232;DHT22;12364;47.810;8.810;2023-02-15T07:51:21;1.90;95.20
24232;DHT22;12364;47.810;8.810;2023-02-15T07:53:48;1.80;95.40
24232;DHT22;12364;47.810;8.810;2023-02-15T07:56:15;1.90;95.60
24232;DHT22;12364;47.810;8.810;2023-02-15T07:58:42;1.90;95.50
24232;DHT22;12364;47.810;8.810;2023-02-15T08:03:51;1.90;95.40
24232;DHT22;12364;47.810;8.810;2023-02-15T08:06:18;1.90;95.60
24232;DHT22;12364;47.810;8.810;2023-02-15T08:08:45;1.90;95.70
24232;DHT22;12364;47.810;8.810;2023-02-15T08:16:30;2.00;95.90
24232;DHT22;12364;47.810;8.810;2023-02-15T08:18:58;2.00;95.70
24232;DHT22;12364;47.810;8.810;2023-02-15T08:21:26;2.00;95.80
24232;DHT22;12364;47.810;8.810;2023-02-15T08:23:54;2.00;95.70
24232;DHT22;12364;47.810;8.810;2023-02-15T08:26:22;2.10;95.80
24232;DHT22;12364;47.810;8.810;2023-02-15T08:28:50;2.10;95.80
24232;DHT22;12364;47.810;8.810;2023-02-15T08:31:17;2.10;95.90
24232;DHT22;12364;47.810;8.810;2023-02-15T08:33:45;2.10;96.10
24232;DHT22;12364;47.810;8.810;2023-02-15T08:36:14;2.10;96.20
24232;DHT22;12364;47.810;8.810;2023-02-15T08:38:41;2.10;96.20
24232;DHT22;12364;47.810;8.810;2023-02-15T08:41:18;2.20;96.50
24232;DHT22;12364;47.810;8.810;2023-02-15T08:43:55;2.20;96.50
24232;DHT22;12364;47.810;8.810;2023-02-15T08:46:23;2.20;96.60
24232;DHT22;12364;47.810;8.810;2023-02-15T08:48:50;2.30;96.60
24232;DHT22;12364;47.810;8.810;2023-02-15T08:51:19;2.30;96.40
24232;DHT22;12364;47.810;8.810;2023-02-15T08:53:47;2.30;96.40
24232;DHT22;12364;47.810;8.810;2023-02-15T08:56:18;2.30;96.40
24232;DHT22;12364;47.810;8.810;2023-02-15T08:58:45;2.40;96.60
24232;DHT22;12364;47.810;8.810;2023-02-15T09:01:16;2.40;96.70
24232;DHT22;12364;47.810;8.810;2023-02-15T09:03:45;2.40;96.70
24232;DHT22;12364;47.810;8.810;2023-02-15T09:06:12;2.40;96.70
24232;DHT22;12364;47.810;8.810;2023-02-15T09:08:40;2.50;96.70
24232;DHT22;12364;47.810;8.810;2023-02-15T09:11:14;2.50;96.70
24232;DHT22;12364;47.810;8.810;2023-02-15T09:13:49;2.60;96.80
24232;DHT22;12364;47.810;8.810;2023-02-15T09:16:18;2.70;96.90
24232;DHT22;12364;47.810;8.810;2023-02-15T09:18:45;2.80;96.90
24232;DHT22;12364;47.810;8.810;2023-02-15T09:21:13;2.80;96.80
24232;DHT22;12364;47.810;8.810;2023-02-15T09:23:41;2.90;96.90
24232;DHT22;12364;47.810;8.810;2023-02-15T09:26:10;2.90;96.70
24232;DHT22;12364;47.810;8.810;2023-02-15T09:28:37;2.90;96.70
24232;DHT22;12364;47.810;8.810;2023-02-15T09:31:06;3.00;96.70
24232;DHT22;12364;47.810;8.810;2023-02-15T09:33:34;3.10;96.60
24232;DHT22;12364;47.810;8.810;2023-02-15T09:36:01;3.10;96.70
24232;DHT22;12364;47.810;8.810;2023-02-15T09:38:29;3.20;96.80
24232;DHT22;12364;47.810;8.810;2023-02-15T09:41:00;3.30;96.80
24232;DHT22;12364;47.810;8.810;2023-02-15T09:48:33;3.60;96.70
24232;DHT22;12364;47.810;8.810;2023-02-15T09:53:40;3.70;96.50
24232;DHT22;12364;47.810;8.810;2023-02-15T09:56:14;3.70;96.50
24232;DHT22;12364;47.810;8.810;2023-02-15T10:11:57;4.00;96.40
24232;DHT22;12364;47.810;8.810;2023-02-15T10:17:19;4.00;96.20
24232;DHT22;12364;47.810;8.810;2023-02-15T10:22:30;3.90;96.20
24232;DHT22;12364;47.810;8.810;2023-02-15T10:25:24;3.90;96.40
24232;DHT22;12364;47.810;8.810;2023-02-15T10:27:53;3.90;96.50
24232;DHT22;12364;47.810;8.810;2023-02-15T10:30:27;4.00;96.60
24232;DHT22;12364;47.810;8.810;2023-02-15T10:38:20;4.20;96.70
24232;DHT22;12364;47.810;8.810;2023-02-15T10:46:31;4.40;96.60
24232;DHT22;12364;47.810;8.810;2023-02-15T10:56:46;4.40;96.90
24232;DHT22;12364;47.810;8.810;2023-02-15T11:07:15;4.60;97.00
24232;DHT22;12364;47.810;8.810;2023-02-15T11:09:47;4.60;97.00
24232;DHT22;12364;47.810;8.810;2023-02-15T11:12:17;4.70;97.00
24232;DHT22;12364;47.810;8.810;2023-02-15T11:14:46;4.70;96.90
24232;DHT22;12364;47.810;8.810;2023-02-15T11:17:16;4.70;96.90
24232;DHT22;12364;47.810;8.810;2023-02-15T11:19:50;4.80;96.90
24232;DHT22;12364;47.810;8.810;2023-02-15T11:22:18;4.80;96.90
24232;DHT22;12364;47.810;8.810;2023-02-15T11:24:46;4.90;97.10
24232;DHT22;12364;47.810;8.810;2023-02-15T11:27:24;4.90;97.10
24232;DHT22;12364;47.810;8.810;2023-02-15T11:32:27;5.00;97.00
24232;DHT22;12364;47.810;8.810;2023-02-15T11:34:59;5.00;97.20
24232;DHT22;12364;47.810;8.810;2023-02-15T11:37:31;5.10;97.10
24232;DHT22;12364;47.810;8.810;2023-02-15T11:40:00;5.10;96.90
24232;DHT22;12364;47.810;8.810;2023-02-15T11:42:28;5.10;96.90
24232;DHT22;12364;47.810;8.810;2023-02-15T11:47:23;5.20;97.10
24232;DHT22;12364;47.810;8.810;2023-02-15T11:49:51;5.30;96.90
24232;DHT22;12364;47.810;8.810;2023-02-15T11:52:18;5.30;96.90
24232;DHT22;12364;47.810;8.810;2023-02-15T11:54:46;5.20;96.50
24232;DHT22;12364;47.810;8.810;2023-02-15T11:59:49;5.20;97.00
24232;DHT22;12364;47.810;8.810;2023-02-15T12:02:19;5.20;97.00
24232;DHT22;12364;47.810;8.810;2023-02-15T12:04:51;5.20;97.00
24232;DHT22;12364;47.810;8.810;2023-02-15T12:07:24;5.30;97.00
24232;DHT22;12364;47.810;8.810;2023-02-15T12:12:20;5.40;97.20
24232;DHT22;12364;47.810;8.810;2023-02-15T12:14:49;5.40;97.30
24232;DHT22;12364;47.810;8.810;2023-02-15T12:17:17;5.40;97.60
24232;DHT22;12364;47.810;8.810;2023-02-15T12:19:44;5.50;97.30
24232;DHT22;12364;47.810;8.810;2023-02-15T12:22:20;5.60;97.30
24232;DHT22;12364;47.810;8.810;2023-02-15T12:24:48;5.60;97.20
24232;DHT22;12364;47.810;8.810;2023-02-15T12:27:16;5.60;97.30
24232;DHT22;12364;47.810;8.810;2023-02-15T12:29:46;5.70;97.40
24232;DHT22;12364;47.810;8.810;2023-02-15T12:32:18;5.70;97.30
24232;DHT22;12364;47.810;8.810;2023-02-15T12:34:46;5.80;97.40
24232;DHT22;12364;47.810;8.810;2023-02-15T12:37:17;5.80;97.70
24232;DHT22;12364;47.810;8.810;2023-02-15T12:39:53;5.80;97.50
24232;DHT22;12364;47.810;8.810;2023-02-15T12:42:20;5.90;97.60
24232;DHT22;12364;47.810;8.810;2023-02-15T12:47:21;5.90;97.30
24232;DHT22;12364;47.810;8.810;2023-02-15T12:52:38;6.00;97.40
24232;DHT22;12364;47.810;8.810;2023-02-15T12:55:25;6.10;97.40
24232;DHT22;12364;47.810;8.810;2023-02-15T13:00:40;6.10;97.40
24232;DHT22;12364;47.810;8.810;2023-02-15T13:03:15;6.10;97.60
24232;DHT22;12364;47.810;8.810;2023-02-15T13:05:42;6.10;97.80
24232;DHT22;12364;47.810;8.810;2023-02-15T13:10:42;6.20;97.60
24232;DHT22;12364;47.810;8.810;2023-02-15T13:13:19;6.30;97.70
24232;DHT22;12364;47.810;8.810;2023-02-15T13:15:54;6.30;97.70
24232;DHT22;12364;47.810;8.810;2023-02-15T13:18:34;6.40;97.70
24232;DHT22;12364;47.810;8.810;2023-02-15T13:21:09;6.30;97.50
24232;DHT22;12364;47.810;8.810;2023-02-15T13:23:37;6.30;97.70
24232;DHT22;12364;47.810;8.810;2023-02-15T13:26:08;6.40;97.70
24232;DHT22;12364;47.810;8.810;2023-02-15T13:28:39;6.40;97.60
24232;DHT22;12364;47.810;8.810;2023-02-15T13:31:15;6.40;97.70
24232;DHT22;12364;47.810;8.810;2023-02-15T13:33:46;6.50;97.60
24232;DHT22;12364;47.810;8.810;2023-02-15T13:36:23;6.60;97.70
24232;DHT22;12364;47.810;8.810;2023-02-15T13:39:07;6.60;97.60
24232;DHT22;12364;47.810;8.810;2023-02-15T13:44:10;6.70;97.50
24232;DHT22;12364;47.810;8.810;2023-02-15T13:47:00;6.70;97.50
24232;DHT22;12364;47.810;8.810;2023-02-15T13:49:33;6.80;97.40
24232;DHT22;12364;47.810;8.810;2023-02-15T13:59:33;6.80;97.50
24232;DHT22;12364;47.810;8.810;2023-02-15T14:07:29;6.70;97.40
24232;DHT22;12364;47.810;8.810;2023-02-15T14:12:34;6.80;97.70
24232;DHT22;12364;47.810;8.810;2023-02-15T14:15:15;6.80;97.50
24232;DHT22;12364;47.810;8.810;2023-02-15T14:20:41;6.80;97.60
24232;DHT22;12364;47.810;8.810;2023-02-15T14:23:24;6.80;97.70
24232;DHT22;12364;47.810;8.810;2023-02-15T14:26:05;6.80;97.70
24232;DHT22;12364;47.810;8.810;2023-02-15T14:28:42;6.80;97.60
24232;DHT22;12364;47.810;8.810;2023-02-15T14:31:11;6.80;97.70
24232;DHT22;12364;47.810;8.810;2023-02-15T14:33:39;6.80;97.80
24232;DHT22;12364;47.810;8.810;2023-02-15T14:36:07;6.80;97.80
24232;DHT22;12364;47.810;8.810;2023-02-15T14:43:56;6.90;98.00
24232;DHT22;12364;47.810;8.810;2023-02-15T14:48:55;6.90;98.10
24232;DHT22;12364;47.810;8.810;2023-02-15T15:01:58;6.90;98.30
24232;DHT22;12364;47.810;8.810;2023-02-15T15:04:27;6.90;98.30
24232;DHT22;12364;47.810;8.810;2023-02-15T15:06:57;7.00;98.40
24232;DHT22;12364;47.810;8.810;2023-02-15T15:09:26;7.00;98.40
24232;DHT22;12364;47.810;8.810;2023-02-15T15:11:55;7.00;98.40
24232;DHT22;12364;47.810;8.810;2023-02-15T15:14:40;7.00;98.40
24232;DHT22;12364;47.810;8.810;2023-02-15T15:17:10;7.00;98.40
24232;DHT22;12364;47.810;8.810;2023-02-15T15:22:21;7.00;98.40
24232;DHT22;12364;47.810;8.810;2023-02-15T15:24:51;6.90;98.50
24232;DHT22;12364;47.810;8.810;2023-02-15T15:35:16;6.90;98.70
24232;DHT22;12364;47.810;8.810;2023-02-15T15:40:40;6.80;98.80
24232;DHT22;12364;47.810;8.810;2023-02-15T15:43:19;6.80;98.80
24232;DHT22;12364;47.810;8.810;2023-02-15T15:45:57;6.90;99.00
24232;DHT22;12364;47.810;8.810;2023-02-15T15:48:30;6.90;99.00
24232;DHT22;12364;47.810;8.810;2023-02-15T15:50:59;6.90;98.90
24232;DHT22;12364;47.810;8.810;2023-02-15T15:53:27;7.00;99.10
24232;DHT22;12364;47.810;8.810;2023-02-15T15:55:57;7.00;98.90
24232;DHT22;12364;47.810;8.810;2023-02-15T15:58:25;7.00;98.90
24232;DHT22;12364;47.810;8.810;2023-02-15T16:00:54;7.00;98.80
24232;DHT22;12364;47.810;8.810;2023-02-15T16:03:24;7.10;98.90
24232;DHT22;12364;47.810;8.810;2023-02-15T16:05:51;7.10;98.80
24232;DHT22;12364;47.810;8.810;2023-02-15T16:10:57;7.10;98.80
24232;DHT22;12364;47.810;8.810;2023-02-15T16:13:25;7.00;98.70
24232;DHT22;12364;47.810;8.810;2023-02-15T16:15:53;7.00;98.90
24232;DHT22;12364;47.810;8.810;2023-02-15T16:18:25;6.90;99.00
24232;DHT22;12364;47.810;8.810;2023-02-15T16:20:57;6.90;99.00
24232;DHT22;12364;47.810;8.810;2023-02-15T16:28:50;6.80;99.10
24232;DHT22;12364;47.810;8.810;2023-02-15T16:31:18;6.80;99.10
24232;DHT22;12364;47.810;8.810;2023-02-15T16:33:45;6.80;99.20
24232;DHT22;12364;47.810;8.810;2023-02-15T16:36:22;6.80;99.10
24232;DHT22;12364;47.810;8.810;2023-02-15T16:41:27;6.90;99.10
24232;DHT22;12364;47.810;8.810;2023-02-15T16:43:55;6.90;99.10
24232;DHT22;12364;47.810;8.810;2023-02-15T16:46:26;6.90;99.10
24232;DHT22;12364;47.810;8.810;2023-02-15T16:48:55;6.80;99.00
24232;DHT22;12364;47.810;8.810;2023-02-15T16:51:24;6.80;98.90
24232;DHT22;12364;47.810;8.810;2023-02-15T16:53:54;6.80;98.90
24232;DHT22;12364;47.810;8.810;2023-02-15T16:56:23;6.80;99.00
24232;DHT22;12364;47.810;8.810;2023-02-15T16:58:50;6.80;99.10
24232;DHT22;12364;47.810;8.810;2023-02-15T17:01:19;6.80;99.20
24232;DHT22;12364;47.810;8.810;2023-02-15T17:03:51;6.70;99.00
24232;DHT22;12364;47.810;8.810;2023-02-15T17:06:20;6.70;99.00
24232;DHT22;12364;47.810;8.810;2023-02-15T17:08:47;6.70;99.00
24232;DHT22;12364;47.810;8.810;2023-02-15T17:11:15;6.70;98.90
24232;DHT22;12364;47.810;8.810;2023-02-15T17:16:48;6.70;99.20
24232;DHT22;12364;47.810;8.810;2023-02-15T17:19:21;6.60;99.40
24232;DHT22;12364;47.810;8.810;2023-02-15T17:21:56;6.50;99.70
24232;DHT22;12364;47.810;8.810;2023-02-15T17:27:06;6.30;99.90
24232;DHT22;12364;47.810;8.810;2023-02-15T17:29:40;6.20;99.90
24232;DHT22;12364;47.810;8.810;2023-02-15T17:32:17;6.00;99.80
24232;DHT22;12364;47.810;8.810;2023-02-15T17:37:41;5.80;99.90
24232;DHT22;12364;47.810;8.810;2023-02-15T17:42:51;5.70;99.90
24232;DHT22;12364;47.810;8.810;2023-02-15T17:45:19;5.60;99.90
24232;DHT22;12364;47.810;8.810;2023-02-15T17:47:47;5.60;99.90
24232;DHT22;12364;47.810;8.810;2023-02-15T17:50:18;5.60;99.90
24232;DHT22;12364;47.810;8.810;2023-02-15T17:52:46;5.60;99.90
24232;DHT22;12364;47.810;8.810;2023-02-15T17:55:14;5.60;99.90
24232;DHT22;12364;47.810;8.810;2023-02-15T17:58:01;5.60;99.90
24232;DHT22;12364;47.810;8.810;2023-02-15T18:00:30;5.60;99.90
24232;DHT22;12364;47.810;8.810;2023-02-15T18:03:16;5.50;99.90
24232;DHT22;12364;47.810;8.810;2023-02-15T18:06:02;5.50;99.60
24232;DHT22;12364;47.810;8.810;2023-02-15T18:08:47;5.40;99.50
24232;DHT22;12364;47.810;8.810;2023-02-15T18:11:33;5.40;99.30
24232;DHT22;12364;47.810;8.810;2023-02-15T18:14:04;5.50;98.90
24232;DHT22;12364;47.810;8.810;2023-02-15T18:16:35;5.50;98.70
24232;DHT22;12364;47.810;8.810;2023-02-15T18:19:03;5.50;98.80
24232;DHT22;12364;47.810;8.810;2023-02-15T18:21:31;5.50;98.80
24232;DHT22;12364;47.810;8.810;2023-02-15T18:23:58;5.50;98.90
24232;DHT22;12364;47.810;8.810;2023-02-15T18:26:26;5.40;98.40
24232;DHT22;12364;47.810;8.810;2023-02-15T18:28:55;5.40;98.40
24232;DHT22;12364;47.810;8.810;2023-02-15T18:31:22;5.40;98.20
24232;DHT22;12364;47.810;8.810;2023-02-15T18:33:51;5.40;98.10
24232;DHT22;12364;47.810;8.810;2023-02-15T18:36:24;5.30;98.00
24232;DHT22;12364;47.810;8.810;2023-02-15T18:38:51;5.30;97.80
24232;DHT22;12364;47.810;8.810;2023-02-15T18:41:20;5.30;97.70
24232;DHT22;12364;47.810;8.810;2023-02-15T18:43:47;5.30;97.60
24232;DHT22;12364;47.810;8.810;2023-02-15T18:46:15;5.30;97.70
24232;DHT22;12364;47.810;8.810;2023-02-15T18:48:43;5.30;97.50
24232;DHT22;12364;47.810;8.810;2023-02-15T18:51:17;5.30;97.60
24232;DHT22;12364;47.810;8.810;2023-02-15T18:53:45;5.20;97.80
24232;DHT22;12364;47.810;8.810;2023-02-15T18:56:15;5.20;97.70
24232;DHT22;12364;47.810;8.810;2023-02-15T18:58:44;5.20;97.70
24232;DHT22;12364;47.810;8.810;2023-02-15T19:01:17;5.20;97.60
24232;DHT22;12364;47.810;8.810;2023-02-15T19:03:48;5.20;97.90
24232;DHT22;12364;47.810;8.810;2023-02-15T19:06:16;5.10;97.50
24232;DHT22;12364;47.810;8.810;2023-02-15T19:08:44;5.10;97.50
24232;DHT22;12364;47.810;8.810;2023-02-15T19:11:13;5.00;97.60
24232;DHT22;12364;47.810;8.810;2023-02-15T19:13:41;5.00;97.50
24232;DHT22;12364;47.810;8.810;2023-02-15T19:16:12;5.00;97.30
24232;DHT22;12364;47.810;8.810;2023-02-15T19:18:40;4.90;97.00
24232;DHT22;12364;47.810;8.810;2023-02-15T19:21:10;4.90;96.60
24232;DHT22;12364;47.810;8.810;2023-02-15T19:23:38;4.90;96.50
24232;DHT22;12364;47.810;8.810;2023-02-15T19:26:05;5.00;96.40
24232;DHT22;12364;47.810;8.810;2023-02-15T19:28:32;4.90;96.10
24232;DHT22;12364;47.810;8.810;2023-02-15T19:30:59;4.90;95.80
24232;DHT22;12364;47.810;8.810;2023-02-15T19:33:26;4.90;95.60
24232;DHT22;12364;47.810;8.810;2023-02-15T19:35:53;4.90;95.60
24232;DHT22;12364;47.810;8.810;2023-02-15T19:38:24;4.90;95.70
24232;DHT22;12364;47.810;8.810;2023-02-15T19:40:51;4.80;95.50
24232;DHT22;12364;47.810;8.810;2023-02-15T19:43:19;4.80;95.60
24232;DHT22;12364;47.810;8.810;2023-02-15T19:45:52;4.90;95.50
24232;DHT22;12364;47.810;8.810;2023-02-15T19:48:19;4.90;95.50
24232;DHT22;12364;47.810;8.810;2023-02-15T19:50:46;4.90;95.60
24232;DHT22;12364;47.810;8.810;2023-02-15T19:53:23;4.90;95.50
24232;DHT22;12364;47.810;8.810;2023-02-15T19:55:50;4.90;95.40
24232;DHT22;12364;47.810;8.810;2023-02-15T19:58:18;4.90;95.60
24232;DHT22;12364;47.810;8.810;2023-02-15T20:00:46;4.80;95.60
24232;DHT22;12364;47.810;8.810;2023-02-15T20:03:13;4.90;95.20
24232;DHT22;12364;47.810;8.810;2023-02-15T20:05:41;4.90;94.80
24232;DHT22;12364;47.810;8.810;2023-02-15T20:08:15;4.90;94.90
24232;DHT22;12364;47.810;8.810;2023-02-15T20:10:42;4.80;95.00
24232;DHT22;12364;47.810;8.810;2023-02-15T20:13:20;4.80;95.10
24232;DHT22;12364;47.810;8.810;2023-02-15T20:15:48;4.80;95.00
24232;DHT22;12364;47.810;8.810;2023-02-15T20:18:15;4.80;95.10
24232;DHT22;12364;47.810;8.810;2023-02-15T20:20:43;4.80;95.20
24232;DHT22;12364;47.810;8.810;2023-02-15T20:23:53;4.90;95.20
24232;DHT22;12364;47.810;8.810;2023-02-15T20:26:09;4.80;94.70
24232;DHT22;12364;47.810;8.810;2023-02-15T20:28:38;4.70;94.70
24232;DHT22;12364;47.810;8.810;2023-02-15T20:31:04;4.80;95.00
24232;DHT22;12364;47.810;8.810;2023-02-15T20:33:32;4.80;95.00
24232;DHT22;12364;47.810;8.810;2023-02-15T20:35:59;4.80;94.80
24232;DHT22;12364;47.810;8.810;2023-02-15T20:38:27;4.80;94.80
24232;DHT22;12364;47.810;8.810;2023-02-15T20:40:55;4.70;94.80
24232;DHT22;12364;47.810;8.810;2023-02-15T20:43:41;4.70;94.50
24232;DHT22;12364;47.810;8.810;2023-02-15T20:46:08;4.60;94.60
24232;DHT22;12364;47.810;8.810;2023-02-15T20:48:35;4.50;94.60
24232;DHT22;12364;47.810;8.810;2023-02-15T20:51:02;4.50;94.60
24232;DHT22;12364;47.810;8.810;2023-02-15T20:53:30;4.50;94.80
24232;DHT22;12364;47.810;8.810;2023-02-15T20:55:57;4.60;94.80
24232;DHT22;12364;47.810;8.810;2023-02-15T20:58:24;4.60;95.00
24232;DHT22;12364;47.810;8.810;2023-02-15T21:00:52;4.50;94.90
24232;DHT22;12364;47.810;8.810;2023-02-15T21:03:21;4.50;94.90
24232;DHT22;12364;47.810;8.810;2023-02-15T21:05:48;4.50;94.60
24232;DHT22;12364;47.810;8.810;2023-02-15T21:08:18;4.50;94.60
24232;DHT22;12364;47.810;8.810;2023-02-15T21:10:46;4.50;94.70
24232;DHT22;12364;47.810;8.810;2023-02-15T21:13:18;4.50;94.70
24232;DHT22;12364;47.810;8.810;2023-02-15T21:15:46;4.50;94.60
24232;DHT22;12364;47.810;8.810;2023-02-15T21:18:24;4.50;94.10
24232;DHT22;12364;47.810;8.810;2023-02-15T21:20:52;4.50;93.90
24232;DHT22;12364;47.810;8.810;2023-02-15T21:23:20;4.40;94.00
24232;DHT22;12364;47.810;8.810;2023-02-15T21:25:48;4.40;93.80
24232;DHT22;12364;47.810;8.810;2023-02-15T21:28:17;4.40;93.60
24232;DHT22;12364;47.810;8.810;2023-02-15T21:30:45;4.30;93.70
24232;DHT22;12364;47.810;8.810;2023-02-15T21:33:12;4.20;94.20
24232;DHT22;12364;47.810;8.810;2023-02-15T21:35:38;4.20;94.20
24232;DHT22;12364;47.810;8.810;2023-02-15T21:38:06;4.20;94.10
24232;DHT22;12364;47.810;8.810;2023-02-15T21:40:33;4.20;94.00
24232;DHT22;12364;47.810;8.810;2023-02-15T21:43:01;4.30;94.30
24232;DHT22;12364;47.810;8.810;2023-02-15T21:45:46;4.30;94.20
24232;DHT22;12364;47.810;8.810;2023-02-15T21:48:31;4.30;94.00
24232;DHT22;12364;47.810;8.810;2023-02-15T21:50:59;4.20;94.10
24232;DHT22;12364;47.810;8.810;2023-02-15T21:53:45;4.30;94.30
24232;DHT22;12364;47.810;8.810;2023-02-15T21:56:13;4.30;94.20
24232;DHT22;12364;47.810;8.810;2023-02-15T21:58:41;4.30;94.10
24232;DHT22;12364;47.810;8.810;2023-02-15T22:01:16;4.40;94.10
24232;DHT22;12364;47.810;8.810;2023-02-15T22:03:45;4.40;94.00
24232;DHT22;12364;47.810;8.810;2023-02-15T22:06:12;4.50;93.80
24232;DHT22;12364;47.810;8.810;2023-02-15T22:08:39;4.30;93.80
24232;DHT22;12364;47.810;8.810;2023-02-15T22:11:10;4.30;93.80
24232;DHT22;12364;47.810;8.810;2023-02-15T22:13:38;4.30;93.80
24232;DHT22;12364;47.810;8.810;2023-02-15T22:16:05;4.30;93.30
24232;DHT22;12364;47.810;8.810;2023-02-15T22:18:32;4.20;93.30
24232;DHT22;12364;47.810;8.810;2023-02-15T22:21:00;4.10;93.20
24232;DHT22;12364;47.810;8.810;2023-02-15T22:23:27;4.10;93.70
24232;DHT22;12364;47.810;8.810;2023-02-15T22:25:58;4.00;93.50
24232;DHT22;12364;47.810;8.810;2023-02-15T22:28:32;4.00;93.70
24232;DHT22;12364;47.810;8.810;2023-02-15T22:30:59;4.00;93.90
24232;DHT22;12364;47.810;8.810;2023-02-15T22:33:28;4.00;93.60
24232;DHT22;12364;47.810;8.810;2023-02-15T22:35:55;4.00;93.40
24232;DHT22;12364;47.810;8.810;2023-02-15T22:38:22;3.90;93.60
24232;DHT22;12364;47.810;8.810;2023-02-15T22:40:50;4.00;93.80
24232;DHT22;12364;47.810;8.810;2023-02-15T22:45:47;4.00;93.10
24232;DHT22;12364;47.810;8.810;2023-02-15T22:48:15;3.90;93.30
24232;DHT22;12364;47.810;8.810;2023-02-15T22:50:43;4.00;93.10
24232;DHT22;12364;47.810;8.810;2023-02-15T22:53:10;4.00;93.10
24232;DHT22;12364;47.810;8.810;2023-02-15T22:55:37;4.00;93.20
24232;DHT22;12364;47.810;8.810;2023-02-15T22:58:04;4.00;92.90
24232;DHT22;12364;47.810;8.810;2023-02-15T23:00:37;3.90;92.80
24232;DHT22;12364;47.810;8.810;2023-02-15T23:03:12;3.80;92.90
24232;DHT22;12364;47.810;8.810;2023-02-15T23:05:39;3.80;92.60
24232;DHT22;12364;47.810;8.810;2023-02-15T23:08:07;3.80;92.60
24232;DHT22;12364;47.810;8.810;2023-02-15T23:10:34;3.80;92.40
24232;DHT22;12364;47.810;8.810;2023-02-15T23:13:01;3.80;92.40
24232;DHT22;12364;47.810;8.810;2023-02-15T23:15:51;3.80;92.20
24232;DHT22;12364;47.810;8.810;2023-02-15T23:20:49;3.70;91.90
24232;DHT22;12364;47.810;8.810;2023-02-15T23:23:17;3.70;92.10
24232;DHT22;12364;47.810;8.810;2023-02-15T23:25:46;3.70;92.70
24232;DHT22;12364;47.810;8.810;2023-02-15T23:28:20;3.70;92.40